Time;durP1;ratioP1;P1;durP2;ratioP2;P2;SDS_P1;SDS_P2;PMS_P1;PMS_P2;Temp;Humidity;BMP_temperature;BMP_pressure;BME280_temperature;BME280_humidity;BME280_pressure;Samples;Min_cycle;Max_cycle;Signal;HPM_P1;HPM_P2
2023/06/15 00:00:06;;;;;;;14.07;7.73;;;;;;;17.45;100.00;95032.16;5014559;28;20233;-75
2023/06/15 00:02:33;;;;;;;12.40;7.80;;;;;;;17.53;100.00;95033.63;5027461;28;20226;-76
2023/06/15 00:04:58;;;;;;;9.70;6.93;;;;;;;17.47;100.00;95023.97;5027700;28;20225;-74
2023/06/15 00:07:24;;;;;;;9.90;7.60;;;;;;;17.47;100.00;95024.78;5010286;28;20229;-75
2023/06/15 00:09:50;;;;;;;11.13;7.40;;;;;;;17.42;100.00;95022.03;5011416;28;20261;-74
2023/06/15 00:12:16;;;;;;;9.80;7.63;;;;;;;17.36;100.00;95019.56;5011507;28;20239;-75
2023/06/15 00:14:41;;;;;;;11.03;7.70;;;;;;;17.40;100.00;95020.69;5008820;28;20602;-75
2023/06/15 00:17:08;;;;;;;11.30;7.70;;;;;;;17.18;100.00;95025.84;5022669;28;20681;-74
2023/06/15 00:19:33;;;;;;;11.20;7.60;;;;;;;17.32;100.00;95021.06;5007588;28;20233;-75
2023/06/15 00:21:59;;;;;;;11.37;7.60;;;;;;;17.38;100.00;95018.28;5008733;28;20709;-75
2023/06/15 00:24:25;;;;;;;11.87;7.47;;;;;;;17.32;100.00;95018.41;5040998;28;20464;-75
2023/06/15 00:26:50;;;;;;;12.10;7.73;;;;;;;17.24;100.00;95019.59;5006813;28;20233;-75
2023/06/15 00:29:16;;;;;;;12.73;7.90;;;;;;;17.14;100.00;95018.63;5022520;28;20226;-75
2023/06/15 00:31:42;;;;;;;11.60;8.10;;;;;;;17.05;100.00;95014.75;4990339;28;20226;-76
2023/06/15 00:34:07;;;;;;;12.83;8.00;;;;;;;17.26;100.00;95011.44;5023705;28;20907;-75
2023/06/15 00:36:33;;;;;;;10.77;7.60;;;;;;;17.29;100.00;95019.69;4990910;28;20230;-76
2023/06/15 00:38:58;;;;;;;10.93;7.90;;;;;;;17.31;100.00;95011.53;5006534;28;20238;-76
2023/06/15 00:41:25;;;;;;;12.77;8.23;;;;;;;17.34;100.00;95011.03;4991158;28;20712;-75
2023/06/15 00:43:53;;;;;;;12.40;8.10;;;;;;;17.35;100.00;95005.53;5008017;28;20234;-75
2023/06/15 00:46:18;;;;;;;12.77;8.80;;;;;;;17.21;100.00;95009.50;5023591;28;20234;-76
2023/06/15 00:48:44;;;;;;;13.63;8.60;;;;;;;17.04;100.00;95005.22;4989252;28;20270;-75
2023/06/15 00:51:12;;;;;;;13.47;8.60;;;;;;;17.20;100.00;95007.09;4995519;28;20922;-75
2023/06/15 00:53:37;;;;;;;14.53;8.90;;;;;;;17.28;100.00;95004.88;5002884;28;20248;-75
2023/06/15 00:56:05;;;;;;;13.40;9.23;;;;;;;17.12;100.00;95008.31;4989348;28;20226;-75
2023/06/15 00:58:31;;;;;;;13.13;8.77;;;;;;;17.11;100.00;95014.63;4987971;28;20272;-76
2023/06/15 01:00:57;;;;;;;12.80;8.90;;;;;;;17.26;100.00;95004.31;5008177;28;20714;-75
2023/06/15 01:03:22;;;;;;;14.10;9.20;;;;;;;17.12;100.00;94999.56;5007506;28;20230;-74
2023/06/15 01:05:49;;;;;;;12.70;9.00;;;;;;;17.24;100.00;95009.00;5005240;28;20310;-74
2023/06/15 01:08:15;;;;;;;15.03;8.70;;;;;;;17.34;100.00;95001.25;5024042;28;20234;-75
2023/06/15 01:10:41;;;;;;;12.37;8.87;;;;;;;17.28;100.00;95004.88;5007089;28;20222;-75
2023/06/15 01:13:07;;;;;;;14.63;9.67;;;;;;;17.15;100.00;95001.69;5006630;28;20238;-75
2023/06/15 01:15:33;;;;;;;14.23;9.70;;;;;;;17.17;100.00;95000.44;5004818;28;20321;-75
2023/06/15 01:17:59;;;;;;;14.20;9.50;;;;;;;17.21;100.00;94988.34;5008854;28;20238;-76
2023/06/15 01:20:38;;;;;;;15.53;9.53;;;;;;;17.08;100.00;94998.41;5010925;28;20238;-76
2023/06/15 01:23:25;;;;;;;14.67;9.23;;;;;;;17.17;100.00;94989.84;5042690;28;20256;-75
2023/06/15 01:26:07;;;;;;;15.50;10.23;;;;;;;17.09;100.00;94990.25;5026906;28;20245;-75
2023/06/15 01:28:41;;;;;;;16.07;10.03;;;;;;;17.01;100.00;94987.16;5009206;28;20244;-75
2023/06/15 01:31:08;;;;;;;14.37;10.13;;;;;;;17.11;100.00;94976.78;5011527;28;20229;-76
2023/06/15 01:33:42;;;;;;;16.40;10.13;;;;;;;17.25;100.00;94981.53;5027205;28;20327;-76
2023/06/15 01:36:08;;;;;;;13.83;9.77;;;;;;;17.28;100.00;94978.41;5011301;28;20234;-76
2023/06/15 01:38:33;;;;;;;14.50;9.03;;;;;;;17.25;100.00;94968.31;5010140;28;20237;-76
2023/06/15 01:40:59;;;;;;;17.37;9.80;;;;;;;17.32;100.00;94976.88;5027294;28;20226;-76
2023/06/15 01:43:30;;;;;;;16.27;10.00;;;;;;;17.24;100.00;94974.63;5010833;28;20238;-75
2023/06/15 01:45:55;;;;;;;16.50;9.83;;;;;;;17.16;100.00;94976.88;5024414;28;20234;-75
2023/06/15 01:48:21;;;;;;;14.40;10.10;;;;;;;17.22;100.00;94974.06;5010300;28;20237;-75
2023/06/15 01:50:48;;;;;;;13.57;9.33;;;;;;;17.23;100.00;94980.97;4990131;28;20265;-75
2023/06/15 01:53:14;;;;;;;17.60;10.37;;;;;;;17.14;100.00;94977.13;5010031;28;20222;-75
2023/06/15 01:55:39;;;;;;;14.60;10.23;;;;;;;17.13;100.00;94975.50;5006863;28;20234;-75
2023/06/15 01:58:05;;;;;;;15.07;9.97;;;;;;;17.04;100.00;94984.06;5010581;28;20311;-75
2023/06/15 02:00:33;;;;;;;15.10;10.33;;;;;;;17.00;100.00;94981.09;5009734;28;20241;-75
2023/06/15 02:02:59;;;;;;;15.73;9.87;;;;;;;17.06;100.00;94980.13;4994622;28;20261;-76
2023/06/15 02:05:25;;;;;;;16.17;10.20;;;;;;;17.04;100.00;94974.28;5026229;28;20349;-75
2023/06/15 02:07:50;;;;;;;17.53;10.30;;;;;;;17.10;100.00;94973.31;5025599;28;20230;-75
2023/06/15 02:10:18;;;;;;;15.50;10.43;;;;;;;17.20;100.00;94970.06;5025027;28;20234;-75
2023/06/15 02:12:44;;;;;;;17.07;10.33;;;;;;;17.14;100.00;94971.81;5010246;28;20233;-75
2023/06/15 02:15:10;;;;;;;16.50;9.80;;;;;;;17.04;100.00;94973.47;5027459;28;20615;-75
2023/06/15 02:17:39;;;;;;;15.37;10.37;;;;;;;17.05;100.00;94967.16;5010701;28;20226;-75
2023/06/15 02:20:08;;;;;;;16.40;10.40;;;;;;;17.22;100.00;94973.28;5012352;28;20743;-75
2023/06/15 02:22:34;;;;;;;15.70;10.50;;;;;;;17.29;100.00;94968.63;5013398;28;20616;-75
2023/06/15 02:25:01;;;;;;;18.47;10.90;;;;;;;17.17;100.00;94966.03;5012615;28;20317;-75
2023/06/15 02:27:27;;;;;;;15.30;10.43;;;;;;;17.15;100.00;94962.03;5010040;28;20247;-75
2023/06/15 02:29:52;;;;;;;19.03;10.53;;;;;;;17.20;100.00;94968.22;5008771;28;20222;-75
2023/06/15 02:32:37;;;;;;;20.17;10.97;;;;;;;17.21;100.00;94963.72;4994612;28;20284;-76
2023/06/15 02:35:05;;;;;;;18.13;10.83;;;;;;;17.05;100.00;94957.38;4993381;28;20237;-75
2023/06/15 02:37:31;;;;;;;16.07;10.83;;;;;;;17.23;100.00;94962.47;4993005;28;20234;-75
2023/06/15 02:39:57;;;;;;;18.43;10.90;;;;;;;17.30;100.00;94965.75;5010438;28;20238;-76
2023/06/15 02:42:22;;;;;;;15.10;10.63;;;;;;;17.36;100.00;94964.00;4993939;28;20237;-76
2023/06/15 02:44:48;;;;;;;18.43;11.10;;;;;;;17.35;100.00;94963.19;5009897;28;20226;-75
2023/06/15 02:47:14;;;;;;;17.30;11.23;;;;;;;17.29;100.00;94966.78;5010032;28;20258;-75
2023/06/15 02:49:39;;;;;;;17.63;10.60;;;;;;;17.32;100.00;94963.66;5008945;28;20234;-76
2023/06/15 02:52:05;;;;;;;19.07;11.60;;;;;;;17.29;100.00;94960.72;5027549;28;20230;-76
2023/06/15 02:54:31;;;;;;;19.67;11.73;;;;;;;17.19;100.00;94963.97;5009401;28;20226;-76
2023/06/15 02:57:01;;;;;;;15.10;10.83;;;;;;;17.35;100.00;94965.84;5010378;28;20245;-77
2023/06/15 02:59:26;;;;;;;18.87;11.20;;;;;;;17.42;100.00;94970.97;5009154;28;20242;-77
2023/06/15 03:01:52;;;;;;;18.40;10.87;;;;;;;17.43;100.00;94962.00;5026394;28;20288;-77
2023/06/15 03:04:21;;;;;;;18.80;11.37;;;;;;;17.42;100.00;94969.13;5026972;28;20610;-77
2023/06/15 03:06:49;;;;;;;20.77;11.33;;;;;;;17.31;100.00;94972.66;4992374;28;20241;-75
2023/06/15 03:09:17;;;;;;;17.33;11.27;;;;;;;17.41;100.00;94967.50;5010109;28;20349;-76
2023/06/15 03:11:43;;;;;;;19.47;12.00;;;;;;;17.44;100.00;94963.56;5005629;28;20236;-75
2023/06/15 03:14:12;;;;;;;19.87;12.50;;;;;;;17.21;100.00;94963.72;4991510;28;20225;-75
2023/06/15 03:16:39;;;;;;;23.40;12.77;;;;;;;17.14;100.00;94971.03;4992050;28;20315;-77
2023/06/15 03:19:05;;;;;;;18.93;12.67;;;;;;;17.35;100.00;94967.66;5009933;28;20721;-77
2023/06/15 03:21:31;;;;;;;18.50;12.40;;;;;;;17.48;100.00;94967.38;4989594;28;20318;-76
2023/06/15 03:23:56;;;;;;;18.93;12.17;;;;;;;17.52;100.00;94968.50;5009354;28;20234;-76
2023/06/15 03:26:23;;;;;;;19.90;12.10;;;;;;;17.56;100.00;94968.81;5009665;28;20236;-76
2023/06/15 03:28:48;;;;;;;20.23;13.10;;;;;;;17.56;100.00;94964.34;5005673;28;20707;-77
2023/06/15 03:31:17;;;;;;;18.50;12.20;;;;;;;17.61;100.00;94961.75;4992762;28;20288;-76
2023/06/15 03:33:43;;;;;;;18.70;12.67;;;;;;;17.41;100.00;94964.84;5008723;28;20233;-77
2023/06/15 03:36:10;;;;;;;18.67;12.47;;;;;;;17.40;100.00;94959.81;5007741;28;20244;-76
2023/06/15 03:38:36;;;;;;;21.10;12.27;;;;;;;17.50;100.00;94955.47;5024092;28;20238;-76
2023/06/15 03:41:02;;;;;;;19.60;12.70;;;;;;;17.61;100.00;94956.47;4991803;28;20758;-76
2023/06/15 03:43:28;;;;;;;24.73;12.77;;;;;;;17.59;100.00;94955.91;5005679;28;20257;-76
2023/06/15 03:45:56;;;;;;;18.93;12.37;;;;;;;17.46;100.00;94948.25;4982690;28;20222;-76
2023/06/15 03:48:22;;;;;;;19.33;12.60;;;;;;;17.56;100.00;94952.94;5005214;28;20271;-76
2023/06/15 03:50:47;;;;;;;20.10;12.50;;;;;;;17.61;100.00;94958.31;5005939;28;20249;-77
2023/06/15 03:53:42;;;;;;;21.80;12.90;;;;;;;17.59;100.00;94958.56;5010070;28;20233;-79
2023/06/15 03:56:07;;;;;;;23.67;13.07;;;;;;;17.60;100.00;94969.97;5024717;28;20786;-75
2023/06/15 03:58:33;;;;;;;21.13;12.53;;;;;;;17.51;100.00;94966.88;5025228;28;20230;-76
2023/06/15 04:00:59;;;;;;;19.10;12.40;;;;;;;17.47;100.00;94966.56;5025969;28;20372;-75
2023/06/15 04:03:26;;;;;;;19.63;12.67;;;;;;;17.44;100.00;94972.31;5024977;28;20321;-76
2023/06/15 04:05:52;;;;;;;20.57;12.37;;;;;;;17.40;100.00;94965.09;4992135;28;20249;-76
2023/06/15 04:08:18;;;;;;;21.73;13.57;;;;;;;17.44;100.00;94971.50;5008162;28;20726;-75
2023/06/15 04:10:47;;;;;;;21.13;12.93;;;;;;;17.52;100.00;94968.50;4989113;28;20230;-76
2023/06/15 04:13:12;;;;;;;22.30;12.30;;;;;;;17.55;100.00;94977.81;4992253;28;20288;-76
2023/06/15 04:15:38;;;;;;;22.60;12.70;;;;;;;17.60;100.00;94975.25;5024412;28;20241;-76
2023/06/15 04:18:04;;;;;;;21.97;12.20;;;;;;;17.52;100.00;94976.44;5009374;28;20233;-77
2023/06/15 04:20:31;;;;;;;19.00;11.87;;;;;;;17.55;100.00;94973.34;5007089;28;20233;-76
2023/06/15 04:22:57;;;;;;;19.60;12.37;;;;;;;17.65;100.00;94970.03;4989843;28;20578;-76
2023/06/15 04:25:23;;;;;;;26.03;13.07;;;;;;;17.71;100.00;94967.22;5020570;28;20241;-76
2023/06/15 04:27:49;;;;;;;20.00;11.70;;;;;;;17.71;100.00;94969.06;5007124;28;20238;-76
2023/06/15 04:30:16;;;;;;;18.10;11.57;;;;;;;17.76;100.00;94969.13;5024791;28;20238;-76
2023/06/15 04:33:01;;;;;;;19.30;10.80;;;;;;;17.81;100.00;94977.16;5095074;27;20609;-76
2023/06/15 04:35:31;;;;;;;17.97;10.37;;;;;;;17.86;100.00;94969.28;5070478;28;20243;-76
2023/06/15 04:37:58;;;;;;;15.50;10.27;;;;;;;17.83;100.00;94975.88;5068692;28;20232;-76
2023/06/15 04:40:24;;;;;;;16.17;10.30;;;;;;;17.74;100.00;94974.69;5068499;28;20697;-75
2023/06/15 04:42:50;;;;;;;17.67;10.73;;;;;;;17.85;100.00;94976.44;5033265;28;20248;-75
2023/06/15 04:45:15;;;;;;;15.67;10.50;;;;;;;17.82;100.00;94979.56;5043804;28;20228;-75
2023/06/15 04:47:42;;;;;;;18.57;11.30;;;;;;;17.75;100.00;94976.28;5056687;28;20235;-77
2023/06/15 04:50:08;;;;;;;16.67;10.33;;;;;;;17.85;100.00;94970.31;5068303;28;20300;-76
2023/06/15 04:52:34;;;;;;;16.00;9.87;;;;;;;17.91;100.00;94972.03;5063650;28;20237;-74
2023/06/15 04:55:00;;;;;;;17.97;10.57;;;;;;;17.87;100.00;94978.81;5069711;28;20297;-75
2023/06/15 04:57:25;;;;;;;16.93;11.40;;;;;;;17.87;100.00;94984.13;5037538;28;20243;-76
2023/06/15 04:59:51;;;;;;;16.27;10.00;;;;;;;18.02;100.00;94982.50;5031618;28;20236;-76
2023/06/15 05:02:17;;;;;;;17.13;10.00;;;;;;;17.94;100.00;94988.22;5061214;28;20294;-76
2023/06/15 05:04:43;;;;;;;16.90;9.57;;;;;;;17.97;100.00;94982.44;5076533;28;20236;-75
2023/06/15 05:07:08;;;;;;;12.63;8.80;;;;;;;17.87;100.00;94979.63;5066500;28;21042;-75
2023/06/15 05:09:34;;;;;;;13.70;9.33;;;;;;;17.91;100.00;94991.34;5059035;28;20282;-75
2023/06/15 05:12:01;;;;;;;11.63;8.13;;;;;;;17.89;100.00;94982.84;5028364;28;20257;-74
2023/06/15 05:14:27;;;;;;;12.67;8.30;;;;;;;17.85;100.00;94981.72;5045352;28;20255;-75
2023/06/15 05:16:53;;;;;;;12.23;8.43;;;;;;;17.92;100.00;94992.13;5045589;28;20241;-75
2023/06/15 05:19:20;;;;;;;14.23;8.63;;;;;;;17.91;100.00;94983.38;5064188;28;20327;-74
2023/06/15 05:21:47;;;;;;;12.57;9.30;;;;;;;17.91;100.00;94995.84;5048132;28;20239;-75
2023/06/15 05:24:13;;;;;;;15.87;8.73;;;;;;;17.89;100.00;94993.44;5061536;28;20230;-74
2023/06/15 05:26:38;;;;;;;13.50;9.63;;;;;;;17.91;100.00;94993.22;5060718;28;20233;-75
2023/06/15 05:29:04;;;;;;;15.17;9.27;;;;;;;17.92;100.00;94995.59;5067944;28;20212;-75
2023/06/15 05:31:29;;;;;;;17.23;9.50;;;;;;;18.00;100.00;94994.38;5027888;28;20754;-75
2023/06/15 05:33:55;;;;;;;14.30;9.13;;;;;;;18.05;100.00;95002.41;5030870;28;20730;-75
2023/06/15 05:36:20;;;;;;;14.30;9.53;;;;;;;18.07;100.00;95000.31;5049466;28;20234;-74
2023/06/15 05:38:46;;;;;;;15.87;9.47;;;;;;;18.14;100.00;94999.09;5030085;28;20677;-74
2023/06/15 05:41:13;;;;;;;15.43;9.50;;;;;;;18.15;100.00;95003.34;5048994;28;20260;-74
2023/06/15 05:43:38;;;;;;;16.50;9.83;;;;;;;18.16;100.00;95007.59;5037187;28;20221;-74
2023/06/15 05:46:04;;;;;;;13.77;9.53;;;;;;;18.12;100.00;95006.50;5027697;28;20311;-73
2023/06/15 05:48:29;;;;;;;14.57;9.97;;;;;;;18.34;100.00;95001.19;5012265;28;20914;-74
2023/06/15 05:50:55;;;;;;;13.43;8.97;;;;;;;18.33;100.00;95001.44;5048335;28;20233;-76
2023/06/15 05:53:21;;;;;;;12.60;9.53;;;;;;;18.37;100.00;95011.31;5018376;28;20224;-75
2023/06/15 05:55:47;;;;;;;16.63;9.67;;;;;;;18.38;100.00;95004.97;5049100;28;20244;-74
2023/06/15 05:58:13;;;;;;;14.63;10.00;;;;;;;18.49;100.00;95009.38;5071478;28;20226;-76
2023/06/15 06:00:38;;;;;;;13.83;9.40;;;;;;;18.46;100.00;95014.41;5039008;28;20325;-75
2023/06/15 06:03:04;;;;;;;13.40;9.50;;;;;;;18.51;100.00;95017.88;5032748;28;20233;-76
2023/06/15 06:05:30;;;;;;;20.23;10.10;;;;;;;18.54;100.00;95006.81;5010144;28;20292;-75
2023/06/15 06:07:55;;;;;;;15.53;10.33;;;;;;;18.54;100.00;95009.47;5036389;28;20237;-75
2023/06/15 06:10:21;;;;;;;13.77;9.83;;;;;;;18.63;100.00;95015.13;5039732;28;20229;-74
2023/06/15 06:12:47;;;;;;;16.43;10.17;;;;;;;18.65;100.00;95010.41;5035966;28;20324;-74
2023/06/15 06:15:12;;;;;;;17.43;9.80;;;;;;;18.69;100.00;95014.16;5016035;28;20247;-76
2023/06/15 06:17:38;;;;;;;16.50;9.93;;;;;;;18.73;100.00;95002.78;5012028;28;20242;-75
2023/06/15 06:20:04;;;;;;;16.00;10.13;;;;;;;18.81;100.00;95010.31;5033888;28;20229;-75
2023/06/15 06:22:30;;;;;;;16.13;10.17;;;;;;;18.76;100.00;95006.81;5035184;28;20233;-75
2023/06/15 06:24:56;;;;;;;16.87;10.70;;;;;;;18.83;100.00;95005.56;5040530;28;20224;-76
2023/06/15 06:27:21;;;;;;;21.00;11.27;;;;;;;18.84;100.00;95004.50;5025365;28;20329;-76
2023/06/15 06:29:48;;;;;;;25.40;16.67;;;;;;;18.80;100.00;95008.72;5029934;28;20234;-76
2023/06/15 06:32:13;;;;;;;20.43;12.20;;;;;;;18.80;100.00;95007.91;5030635;28;20229;-76
2023/06/15 06:34:39;;;;;;;18.33;10.77;;;;;;;18.96;100.00;95011.53;5036282;28;20233;-76
2023/06/15 06:37:05;;;;;;;15.83;11.00;;;;;;;18.99;100.00;95014.47;5018657;28;20225;-77
2023/06/15 06:39:31;;;;;;;18.43;11.60;;;;;;;19.05;100.00;95010.84;5017161;28;20237;-76
2023/06/15 06:41:56;;;;;;;20.83;11.30;;;;;;;19.15;100.00;95018.13;5031725;28;20342;-77
2023/06/15 06:44:22;;;;;;;18.57;11.03;;;;;;;19.26;100.00;95014.50;5041133;28;20319;-77
2023/06/15 06:46:48;;;;;;;20.07;11.53;;;;;;;19.23;100.00;95017.66;5044800;28;20408;-75
2023/06/15 06:49:13;;;;;;;20.10;11.40;;;;;;;19.29;100.00;95021.97;5063170;28;20237;-74
2023/06/15 06:51:39;;;;;;;14.90;11.00;;;;;;;19.32;100.00;95016.94;5035352;28;20296;-76
2023/06/15 06:54:04;;;;;;;17.67;11.90;;;;;;;19.18;100.00;95015.75;5038436;28;20230;-75
2023/06/15 06:56:30;;;;;;;20.80;11.43;;;;;;;19.30;100.00;95018.25;5032619;28;20241;-75
2023/06/15 06:58:56;;;;;;;17.50;11.17;;;;;;;19.29;100.00;95006.84;5030317;28;20230;-74
2023/06/15 07:01:21;;;;;;;16.70;11.30;;;;;;;19.35;100.00;95011.13;5048501;28;20243;-75
2023/06/15 07:03:50;;;;;;;16.10;10.90;;;;;;;19.35;100.00;95005.84;5028286;28;20240;-75
2023/06/15 07:06:16;;;;;;;16.80;11.13;;;;;;;19.43;100.00;95017.88;5044434;28;20233;-75
2023/06/15 07:08:42;;;;;;;18.73;11.43;;;;;;;19.48;100.00;95013.44;5028750;28;20233;-76
2023/06/15 07:11:08;;;;;;;18.10;11.37;;;;;;;19.59;100.00;95016.16;5014246;28;20707;-76
2023/06/15 07:13:33;;;;;;;16.30;11.07;;;;;;;19.68;100.00;95023.41;5047287;28;20893;-76
2023/06/15 07:15:59;;;;;;;17.73;11.53;;;;;;;19.65;100.00;95010.66;5045629;28;20234;-76
2023/06/15 07:18:25;;;;;;;17.80;11.50;;;;;;;19.64;100.00;95010.88;5015543;28;20721;-75
2023/06/15 07:20:53;;;;;;;17.23;11.70;;;;;;;19.70;100.00;95010.69;5032879;28;20232;-77
2023/06/15 07:23:20;;;;;;;19.13;12.00;;;;;;;19.70;100.00;95015.19;5052463;28;20734;-75
2023/06/15 07:25:51;;;;;;;18.03;12.67;;;;;;;19.78;100.00;95009.41;5035114;28;20234;-76
2023/06/15 07:28:16;;;;;;;20.77;12.53;;;;;;;19.78;100.00;95014.72;5044475;28;20230;-76
2023/06/15 07:30:44;;;;;;;17.17;12.03;;;;;;;19.76;100.00;95022.13;5030583;28;20230;-76
2023/06/15 07:33:10;;;;;;;19.37;11.93;;;;;;;19.76;100.00;95016.84;5048095;28;20230;-76
2023/06/15 07:35:36;;;;;;;22.37;12.83;;;;;;;19.78;100.00;95022.69;5017955;28;20265;-76
2023/06/15 07:38:02;;;;;;;21.37;11.93;;;;;;;19.77;100.00;95015.78;5023872;28;20321;-76
2023/06/15 07:40:27;;;;;;;18.20;12.43;;;;;;;19.81;100.00;95008.91;5032303;28;20311;-76
2023/06/15 07:42:53;;;;;;;20.20;12.80;;;;;;;19.77;100.00;95013.94;5046002;28;20284;-76
2023/06/15 07:45:19;;;;;;;17.53;12.80;;;;;;;19.75;100.00;95017.91;5044352;28;20233;-76
2023/06/15 07:47:45;;;;;;;22.33;13.13;;;;;;;19.75;100.00;95016.03;5055235;28;20424;-77
2023/06/15 07:50:10;;;;;;;20.57;12.37;;;;;;;19.75;100.00;95010.72;5021883;28;20225;-77
2023/06/15 07:52:36;;;;;;;18.97;12.50;;;;;;;19.76;100.00;95007.00;5036685;28;20237;-76
2023/06/15 07:55:01;;;;;;;22.10;14.60;;;;;;;19.77;100.00;95011.28;5053258;28;20224;-76
2023/06/15 07:57:27;;;;;;;21.13;12.87;;;;;;;19.79;100.00;95017.13;5026266;28;20241;-76
2023/06/15 07:59:53;;;;;;;19.20;12.47;;;;;;;19.78;100.00;95010.22;5033791;28;20235;-76
2023/06/15 08:02:18;;;;;;;19.30;13.20;;;;;;;19.82;100.00;95016.59;5038012;28;20220;-75
2023/06/15 08:04:44;;;;;;;20.23;12.67;;;;;;;19.85;100.00;95012.63;5049200;28;20232;-75
2023/06/15 08:07:10;;;;;;;19.30;12.30;;;;;;;19.90;100.00;95004.72;5016771;28;20237;-75
2023/06/15 08:09:35;;;;;;;17.47;12.73;;;;;;;19.85;100.00;95004.69;5029813;28;20258;-75
2023/06/15 08:12:01;;;;;;;16.10;11.73;;;;;;;19.81;100.00;95011.56;5044648;28;20233;-76
2023/06/15 08:14:27;;;;;;;19.83;12.90;;;;;;;19.87;100.00;95003.38;5033958;28;20563;-76
2023/06/15 08:16:53;;;;;;;20.33;12.73;;;;;;;19.97;100.00;95011.41;5051217;28;20237;-76
2023/06/15 08:19:18;;;;;;;16.70;11.77;;;;;;;19.99;100.00;95005.88;5014254;28;20226;-76
2023/06/15 08:21:44;;;;;;;16.97;11.90;;;;;;;19.98;100.00;95015.69;5019372;28;20618;-76
2023/06/15 08:24:10;;;;;;;18.00;11.50;;;;;;;20.00;100.00;95007.44;5030572;28;20244;-76
2023/06/15 08:26:35;;;;;;;18.73;11.57;;;;;;;20.03;100.00;95013.06;5034892;28;20726;-77
2023/06/15 08:29:01;;;;;;;14.10;10.80;;;;;;;20.06;100.00;95017.84;5036030;28;20267;-75
2023/06/15 08:31:28;;;;;;;15.87;11.37;;;;;;;20.03;100.00;95013.06;5013626;28;20673;-75
2023/06/15 08:33:54;;;;;;;16.30;12.00;;;;;;;20.11;100.00;95020.53;5032868;28;20243;-76
2023/06/15 08:36:19;;;;;;;18.67;12.57;;;;;;;20.16;100.00;95014.47;5011322;28;20242;-76
2023/06/15 08:38:45;;;;;;;17.13;11.47;;;;;;;20.18;100.00;95015.81;5029780;28;20627;-76
2023/06/15 08:41:11;;;;;;;17.93;11.67;;;;;;;20.29;100.00;95015.91;5040246;28;20741;-77
2023/06/15 08:43:37;;;;;;;21.87;11.83;;;;;;;20.31;100.00;95016.44;5047011;28;20240;-77
2023/06/15 08:46:02;;;;;;;19.50;11.53;;;;;;;20.37;100.00;95018.09;5032107;28;20245;-76
2023/06/15 08:48:28;;;;;;;20.63;12.10;;;;;;;20.44;100.00;95026.63;5029426;28;20726;-75
2023/06/15 08:50:53;;;;;;;17.33;11.80;;;;;;;20.48;100.00;95022.38;5034068;28;20660;-76
2023/06/15 08:53:20;;;;;;;17.90;11.53;;;;;;;20.41;100.00;95027.94;5050804;28;20233;-76
2023/06/15 08:55:45;;;;;;;18.67;11.40;;;;;;;20.33;100.00;95028.41;5036635;28;20245;-75
2023/06/15 08:58:11;;;;;;;18.03;11.63;;;;;;;20.39;100.00;95032.72;5049984;28;20221;-76
2023/06/15 09:00:36;;;;;;;20.83;11.57;;;;;;;20.28;100.00;95035.56;5030990;28;20293;-75
2023/06/15 09:03:03;;;;;;;16.13;12.00;;;;;;;20.27;100.00;95031.31;5024995;28;20317;-75
2023/06/15 09:05:29;;;;;;;16.50;11.63;;;;;;;20.16;100.00;95033.06;5059622;28;20713;-76
2023/06/15 09:07:54;;;;;;;18.97;11.80;;;;;;;20.08;100.00;95037.00;5024479;28;20243;-75
2023/06/15 09:10:22;;;;;;;17.47;11.90;;;;;;;20.06;100.00;95033.78;5049855;28;20225;-74
2023/06/15 09:12:49;;;;;;;16.83;11.80;;;;;;;20.08;100.00;95034.34;5032913;28;20303;-75
2023/06/15 09:15:22;;;;;;;18.77;12.60;;;;;;;20.07;100.00;95029.28;5030636;28;20256;-75
2023/06/15 09:17:52;;;;;;;16.87;12.33;;;;;;;19.93;100.00;95042.22;5035548;28;20233;-76
2023/06/15 09:20:18;;;;;;;18.97;12.83;;;;;;;19.80;100.00;95039.97;5039539;28;20375;-76
2023/06/15 09:22:45;;;;;;;20.90;13.17;;;;;;;19.62;100.00;95032.41;5014942;28;20232;-76
2023/06/15 09:25:20;;;;;;;19.80;12.87;;;;;;;19.54;100.00;95035.50;5035423;28;20759;-76
2023/06/15 09:28:03;;;;;;;20.67;13.10;;;;;;;19.47;100.00;95037.56;5032699;28;21145;-76
2023/06/15 09:30:36;;;;;;;18.73;13.70;;;;;;;19.46;100.00;95036.75;5026902;28;20222;-76
2023/06/15 09:33:13;;;;;;;23.37;14.93;;;;;;;19.54;100.00;95040.81;5019005;28;20262;-77
2023/06/15 09:36:11;;;;;;;28.47;17.03;;;;;;;19.47;100.00;95040.22;5046488;28;20252;-77
2023/06/15 09:38:40;;;;;;;32.83;18.20;;;;;;;19.41;100.00;95038.56;5023507;28;20240;-77
2023/06/15 09:41:06;;;;;;;30.50;18.90;;;;;;;19.43;100.00;95033.81;5020303;28;20233;-76
2023/06/15 09:43:35;;;;;;;28.90;18.77;;;;;;;19.42;100.00;95040.97;5040006;28;20243;-76
2023/06/15 09:46:02;;;;;;;31.47;19.27;;;;;;;19.35;100.00;95036.88;5053235;28;20720;-75
2023/06/15 09:48:31;;;;;;;30.53;19.30;;;;;;;19.35;100.00;95050.16;5004866;28;20669;-77
2023/06/15 09:51:02;;;;;;;30.90;18.07;;;;;;;19.29;100.00;95045.84;5055674;28;20241;-76
2023/06/15 09:53:30;;;;;;;29.53;18.20;;;;;;;19.22;100.00;95053.22;5022487;28;20295;-77
2023/06/15 09:55:55;;;;;;;28.63;18.10;;;;;;;19.25;100.00;95047.41;5021985;28;20228;-76
2023/06/15 09:58:21;;;;;;;28.33;18.57;;;;;;;19.30;100.00;95047.44;5052757;28;20244;-75
2023/06/15 10:00:48;;;;;;;33.53;20.30;;;;;;;19.32;100.00;95034.75;5053522;28;20275;-76
2023/06/15 10:03:16;;;;;;;33.37;19.57;;;;;;;19.26;100.00;95044.50;5050996;28;20792;-75
2023/06/15 10:05:43;;;;;;;32.05;19.10;;;;;;;19.34;100.00;95048.56;5068245;28;20730;-76
2023/06/15 10:08:11;;;;;;;33.30;18.47;;;;;;;19.32;100.00;95053.31;5052218;28;20237;-76
2023/06/15 10:10:39;;;;;;;30.80;19.60;;;;;;;19.22;100.00;95048.72;5041144;28;20232;-75
2023/06/15 10:13:07;;;;;;;32.83;19.77;;;;;;;19.24;100.00;95053.75;5044483;28;20250;-73
2023/06/15 10:15:33;;;;;;;32.93;19.73;;;;;;;19.22;100.00;95047.91;5031470;28;20758;-75
2023/06/15 10:17:58;;;;;;;35.80;21.13;;;;;;;19.29;100.00;95049.31;5065336;28;20713;-74
2023/06/15 10:20:24;;;;;;;36.10;21.93;;;;;;;19.32;100.00;95054.09;5052641;28;20232;-75
2023/06/15 10:23:04;;;;;;;34.10;20.60;;;;;;;19.22;100.00;95058.53;5051573;28;20291;-75
2023/06/15 10:25:31;;;;;;;31.87;19.97;;;;;;;19.26;100.00;95062.28;5029039;28;20264;-75
2023/06/15 10:27:57;;;;;;;34.43;20.67;;;;;;;19.23;100.00;95055.59;5025412;28;20726;-75
2023/06/15 10:30:30;;;;;;;32.53;19.13;;;;;;;19.11;100.00;95039.03;5049209;28;20236;-74
2023/06/15 10:33:04;;;;;;;41.77;23.07;;;;;;;19.06;100.00;95044.28;5052873;28;20242;-74
2023/06/15 10:35:39;;;;;;;33.47;20.37;;;;;;;19.19;100.00;95048.41;5039760;28;20729;-75
2023/06/15 10:38:16;;;;;;;31.63;19.33;;;;;;;19.21;100.00;95059.56;5049730;28;20682;-75
2023/06/15 10:40:44;;;;;;;26.17;17.30;;;;;;;19.19;100.00;95062.47;5065579;28;20241;-75
2023/06/15 10:43:18;;;;;;;27.70;17.20;;;;;;;19.15;100.00;95049.94;5049608;28;20237;-75
2023/06/15 10:45:43;;;;;;;28.77;18.40;;;;;;;19.07;100.00;95050.38;5024457;28;20241;-75
2023/06/15 10:48:09;;;;;;;31.17;19.00;;;;;;;19.04;100.00;95042.91;5038151;28;20233;-75
2023/06/15 10:50:39;;;;;;;32.73;19.73;;;;;;;19.08;100.00;95047.47;5038672;28;20233;-74
2023/06/15 10:53:05;;;;;;;31.57;18.77;;;;;;;19.12;100.00;95047.78;5044108;28;20265;-75
2023/06/15 10:55:31;;;;;;;31.47;18.47;;;;;;;19.21;100.00;95054.25;5029416;28;20632;-75
2023/06/15 10:58:18;;;;;;;38.93;20.87;;;;;;;18.83;100.00;95033.94;5046155;28;20248;-75
2023/06/15 11:00:44;;;;;;;31.43;19.90;;;;;;;18.96;100.00;95028.25;5050857;28;20697;-76
2023/06/15 11:03:31;;;;;;;32.73;20.03;;;;;;;19.13;100.00;95030.84;5046847;28;20237;-75
2023/06/15 11:06:06;;;;;;;33.50;20.70;;;;;;;19.15;100.00;95028.72;5044366;28;20237;-76
2023/06/15 11:08:32;;;;;;;33.33;19.80;;;;;;;19.27;100.00;95022.19;5031697;28;20233;-75
2023/06/15 11:10:58;;;;;;;34.77;19.90;;;;;;;19.24;100.00;95019.25;5015683;28;20229;-75